sensor_id;sensor_type;location;lat;lon;timestamp;pressure;altitude;pressure_sealevel;temperature;humidity
15568;BME280;7885;42.596;23.044;2022-10-31T00:00:55;93461.03;;;11.96;69.88
15568;BME280;7885;42.596;23.044;2022-10-31T00:03:22;93467.66;;;11.91;70.19
15568;BME280;7885;42.596;23.044;2022-10-31T00:05:50;93468.03;;;11.83;71.29
15568;BME280;7885;42.596;23.044;2022-10-31T00:08:17;93469.19;;;11.75;71.37
15568;BME280;7885;42.596;23.044;2022-10-31T00:10:45;93462.16;;;11.70;72.04
15568;BME280;7885;42.596;23.044;2022-10-31T00:13:14;93467.63;;;11.77;72.61
15568;BME280;7885;42.596;23.044;2022-10-31T00:15:41;93444.63;;;11.60;71.84
15568;BME280;7885;42.596;23.044;2022-10-31T00:18:08;93459.81;;;11.69;72.46
15568;BME280;7885;42.596;23.044;2022-10-31T00:20:35;93455.09;;;11.58;72.92
15568;BME280;7885;42.596;23.044;2022-10-31T00:23:03;93460.19;;;11.67;72.03
15568;BME280;7885;42.596;23.044;2022-10-31T00:25:33;93460.56;;;11.65;71.16
15568;BME280;7885;42.596;23.044;2022-10-31T00:28:02;93466.44;;;11.64;69.58
15568;BME280;7885;42.596;23.044;2022-10-31T00:30:29;93442.22;;;11.41;72.59
15568;BME280;7885;42.596;23.044;2022-10-31T00:32:56;93438.75;;;11.44;72.22
15568;BME280;7885;42.596;23.044;2022-10-31T00:35:23;93459.03;;;11.61;72.20
15568;BME280;7885;42.596;23.044;2022-10-31T00:37:49;93454.38;;;11.65;73.98
15568;BME280;7885;42.596;23.044;2022-10-31T00:40:16;93460.56;;;11.51;72.84
15568;BME280;7885;42.596;23.044;2022-10-31T00:42:43;93449.66;;;11.44;74.67
15568;BME280;7885;42.596;23.044;2022-10-31T00:45:11;93376.34;;;10.97;75.01
15568;BME280;7885;42.596;23.044;2022-10-31T00:47:38;93458.22;;;11.46;75.34
15568;BME280;7885;42.596;23.044;2022-10-31T00:50:06;93445.75;;;11.45;75.19
15568;BME280;7885;42.596;23.044;2022-10-31T00:52:33;93459.00;;;11.50;75.16
15568;BME280;7885;42.596;23.044;2022-10-31T00:55:00;93464.84;;;11.52;74.61
15568;BME280;7885;42.596;23.044;2022-10-31T00:57:26;93455.09;;;11.44;74.94
15568;BME280;7885;42.596;23.044;2022-10-31T00:59:53;93370.13;;;10.86;73.59
15568;BME280;7885;42.596;23.044;2022-10-31T01:02:21;93455.84;;;11.41;74.45
15568;BME280;7885;42.596;23.044;2022-10-31T01:04:48;93449.59;;;11.23;74.65
15568;BME280;7885;42.596;23.044;2022-10-31T01:07:15;93452.31;;;11.20;74.77
15568;BME280;7885;42.596;23.044;2022-10-31T01:09:41;93455.38;;;11.11;76.33
15568;BME280;7885;42.596;23.044;2022-10-31T01:12:08;93454.25;;;11.15;76.67
15568;BME280;7885;42.596;23.044;2022-10-31T01:14:35;93451.91;;;11.25;75.84
15568;BME280;7885;42.596;23.044;2022-10-31T01:17:02;93453.13;;;11.27;75.29
15568;BME280;7885;42.596;23.044;2022-10-31T01:26:16;93466.28;;;11.11;72.74
15568;BME280;7885;42.596;23.044;2022-10-31T01:28:45;93458.09;;;11.04;73.60
15568;BME280;7885;42.596;23.044;2022-10-31T01:31:12;93443.22;;;10.80;73.65
15568;BME280;7885;42.596;23.044;2022-10-31T01:33:39;93459.56;;;10.84;75.27
15568;BME280;7885;42.596;23.044;2022-10-31T01:39:35;93453.75;;;10.89;76.50
15568;BME280;7885;42.596;23.044;2022-10-31T01:42:03;93450.28;;;10.92;73.70
15568;BME280;7885;42.596;23.044;2022-10-31T01:44:53;93456.84;;;10.87;75.62
15568;BME280;7885;42.596;23.044;2022-10-31T01:47:27;93453.78;;;10.96;76.37
15568;BME280;7885;42.596;23.044;2022-10-31T01:49:59;93380.88;;;10.50;76.60
15568;BME280;7885;42.596;23.044;2022-10-31T01:52:30;93453.81;;;11.03;76.13
15568;BME280;7885;42.596;23.044;2022-10-31T01:55:00;93456.22;;;11.22;75.73
15568;BME280;7885;42.596;23.044;2022-10-31T01:57:31;93461.28;;;11.24;75.50
15568;BME280;7885;42.596;23.044;2022-10-31T02:00:04;93439.47;;;11.20;75.32
15568;BME280;7885;42.596;23.044;2022-10-31T02:02:31;93397.75;;;10.88;74.25
15568;BME280;7885;42.596;23.044;2022-10-31T02:05:00;93444.94;;;11.20;73.95
15568;BME280;7885;42.596;23.044;2022-10-31T02:07:34;93460.47;;;11.16;74.70
15568;BME280;7885;42.596;23.044;2022-10-31T02:10:03;93452.69;;;11.14;75.74
15568;BME280;7885;42.596;23.044;2022-10-31T02:12:32;93446.06;;;11.12;76.41
15568;BME280;7885;42.596;23.044;2022-10-31T02:15:01;93442.53;;;11.08;76.76
15568;BME280;7885;42.596;23.044;2022-10-31T02:17:29;93448.38;;;11.06;76.93
15568;BME280;7885;42.596;23.044;2022-10-31T02:20:04;93423.06;;;10.95;76.50
15568;BME280;7885;42.596;23.044;2022-10-31T02:22:41;93451.88;;;11.07;75.33
15568;BME280;7885;42.596;23.044;2022-10-31T02:25:29;93450.31;;;11.06;74.79
15568;BME280;7885;42.596;23.044;2022-10-31T02:28:16;93428.47;;;10.85;74.77
15568;BME280;7885;42.596;23.044;2022-10-31T02:31:15;93440.53;;;10.91;75.29
15568;BME280;7885;42.596;23.044;2022-10-31T02:33:50;93463.56;;;11.11;74.95
15568;BME280;7885;42.596;23.044;2022-10-31T02:36:23;93464.34;;;11.15;74.91
15568;BME280;7885;42.596;23.044;2022-10-31T02:39:01;93439.00;;;10.97;75.29
15568;BME280;7885;42.596;23.044;2022-10-31T02:41:36;93460.50;;;11.20;75.71
15568;BME280;7885;42.596;23.044;2022-10-31T02:44:08;93445.31;;;11.22;75.36
15568;BME280;7885;42.596;23.044;2022-10-31T02:46:43;93459.75;;;11.40;75.07
15568;BME280;7885;42.596;23.044;2022-10-31T02:49:18;93436.78;;;11.31;74.84
15568;BME280;7885;42.596;23.044;2022-10-31T02:51:48;93466.41;;;11.46;74.99
15568;BME280;7885;42.596;23.044;2022-10-31T02:54:19;93476.13;;;11.47;75.50
15568;BME280;7885;42.596;23.044;2022-10-31T02:56:48;93473.00;;;11.52;75.03
15568;BME280;7885;42.596;23.044;2022-10-31T02:59:17;93469.91;;;11.54;75.12
15568;BME280;7885;42.596;23.044;2022-10-31T03:02:02;93436.38;;;11.32;75.23
15568;BME280;7885;42.596;23.044;2022-10-31T03:04:44;93431.72;;;11.33;74.82
15568;BME280;7885;42.596;23.044;2022-10-31T03:07:21;93469.91;;;11.50;75.14
15568;BME280;7885;42.596;23.044;2022-10-31T03:09:56;93475.38;;;11.50;75.28
15568;BME280;7885;42.596;23.044;2022-10-31T03:12:28;93475.38;;;11.50;75.76
15568;BME280;7885;42.596;23.044;2022-10-31T03:15:04;93426.59;;;11.17;75.35
15568;BME280;7885;42.596;23.044;2022-10-31T03:17:40;93473.00;;;11.52;75.78
15568;BME280;7885;42.596;23.044;2022-10-31T03:20:10;93471.47;;;11.44;75.83
15568;BME280;7885;42.596;23.044;2022-10-31T03:22:39;93473.00;;;11.45;75.89
15568;BME280;7885;42.596;23.044;2022-10-31T03:25:07;93476.09;;;11.33;76.31
15568;BME280;7885;42.596;23.044;2022-10-31T03:27:36;93430.81;;;10.97;75.93
15568;BME280;7885;42.596;23.044;2022-10-31T03:30:06;93469.47;;;11.24;76.17
15568;BME280;7885;42.596;23.044;2022-10-31T03:32:38;93463.59;;;11.18;76.14
15568;BME280;7885;42.596;23.044;2022-10-31T03:35:08;93485.78;;;11.20;76.58
15568;BME280;7885;42.596;23.044;2022-10-31T03:37:37;93486.56;;;11.13;77.70
15568;BME280;7885;42.596;23.044;2022-10-31T03:40:06;93499.38;;;11.13;77.70
15568;BME280;7885;42.596;23.044;2022-10-31T03:42:37;93440.88;;;10.75;77.57
15568;BME280;7885;42.596;23.044;2022-10-31T03:45:08;93501.69;;;11.11;76.78
15568;BME280;7885;42.596;23.044;2022-10-31T03:47:39;93488.03;;;11.04;77.16
15568;BME280;7885;42.596;23.044;2022-10-31T03:50:09;93487.66;;;11.02;76.54
15568;BME280;7885;42.596;23.044;2022-10-31T03:52:41;93453.75;;;10.89;75.79
15568;BME280;7885;42.596;23.044;2022-10-31T03:55:14;93496.22;;;11.07;75.39
15568;BME280;7885;42.596;23.044;2022-10-31T03:57:45;93507.16;;;11.18;75.81
15568;BME280;7885;42.596;23.044;2022-10-31T04:00:16;93460.38;;;10.88;76.04
15568;BME280;7885;42.596;23.044;2022-10-31T04:02:49;93509.53;;;11.23;76.03
15568;BME280;7885;42.596;23.044;2022-10-31T04:05:17;93484.94;;;11.02;76.36
15568;BME280;7885;42.596;23.044;2022-10-31T04:07:46;93502.88;;;11.10;76.62
15568;BME280;7885;42.596;23.044;2022-10-31T04:10:15;93474.78;;;10.95;76.77
15568;BME280;7885;42.596;23.044;2022-10-31T04:12:43;93515.00;;;11.23;77.42
15568;BME280;7885;42.596;23.044;2022-10-31T04:15:12;93508.34;;;11.24;77.33
15568;BME280;7885;42.596;23.044;2022-10-31T04:17:41;93516.94;;;11.26;77.40
15568;BME280;7885;42.596;23.044;2022-10-31T04:20:15;93508.78;;;11.26;76.98
15568;BME280;7885;42.596;23.044;2022-10-31T04:22:42;93517.34;;;11.32;76.78
15568;BME280;7885;42.596;23.044;2022-10-31T04:25:09;93526.31;;;11.32;77.41
15568;BME280;7885;42.596;23.044;2022-10-31T04:27:35;93413.19;;;10.62;77.66
15568;BME280;7885;42.596;23.044;2022-10-31T04:30:03;93526.69;;;11.38;78.31
15568;BME280;7885;42.596;23.044;2022-10-31T04:32:29;93493.56;;;11.18;78.09
15568;BME280;7885;42.596;23.044;2022-10-31T04:34:56;93522.84;;;11.46;77.33
15568;BME280;7885;42.596;23.044;2022-10-31T04:37:24;93525.97;;;11.44;77.40
15568;BME280;7885;42.596;23.044;2022-10-31T04:39:51;93520.91;;;11.50;77.03
15568;BME280;7885;42.596;23.044;2022-10-31T04:42:18;93503.38;;;11.40;76.85
15568;BME280;7885;42.596;23.044;2022-10-31T04:44:44;93509.97;;;11.39;77.05
15568;BME280;7885;42.596;23.044;2022-10-31T04:47:11;93527.16;;;11.54;76.88
15568;BME280;7885;42.596;23.044;2022-10-31T04:49:38;93454.59;;;11.07;76.80
15568;BME280;7885;42.596;23.044;2022-10-31T04:52:05;93532.97;;;11.52;76.95
15568;BME280;7885;42.596;23.044;2022-10-31T04:54:34;93534.56;;;11.53;76.56
15568;BME280;7885;42.596;23.044;2022-10-31T04:57:01;93541.56;;;11.47;77.59
15568;BME280;7885;42.596;23.044;2022-10-31T04:59:28;93535.31;;;11.43;78.55
15568;BME280;7885;42.596;23.044;2022-10-31T05:01:55;93528.69;;;11.44;78.45
15568;BME280;7885;42.596;23.044;2022-10-31T05:04:22;93489.66;;;11.19;78.08
15568;BME280;7885;42.596;23.044;2022-10-31T05:06:48;93533.41;;;11.54;78.39
15568;BME280;7885;42.596;23.044;2022-10-31T05:09:15;93535.72;;;11.59;78.26
15568;BME280;7885;42.596;23.044;2022-10-31T05:11:43;93550.16;;;11.63;77.77
15568;BME280;7885;42.596;23.044;2022-10-31T05:14:10;93513.09;;;11.48;77.55
15568;BME280;7885;42.596;23.044;2022-10-31T05:16:37;93523.63;;;11.46;77.55
15568;BME280;7885;42.596;23.044;2022-10-31T05:19:03;93555.63;;;11.67;78.39
15568;BME280;7885;42.596;23.044;2022-10-31T05:21:30;93541.56;;;11.51;78.97
15568;BME280;7885;42.596;23.044;2022-10-31T05:23:57;93478.34;;;11.03;78.97
15568;BME280;7885;42.596;23.044;2022-10-31T05:26:24;93534.88;;;11.38;78.90
15568;BME280;7885;42.596;23.044;2022-10-31T05:28:52;93525.13;;;11.26;78.64
15568;BME280;7885;42.596;23.044;2022-10-31T05:31:19;93570.00;;;11.53;78.93
15568;BME280;7885;42.596;23.044;2022-10-31T05:33:46;93561.44;;;11.58;78.66
15568;BME280;7885;42.596;23.044;2022-10-31T05:36:12;93570.59;;;12.47;75.98
15568;BME280;7885;42.596;23.044;2022-10-31T05:38:39;93563.38;;;13.56;71.62
15568;BME280;7885;42.596;23.044;2022-10-31T05:41:06;93555.88;;;13.71;70.26
15568;BME280;7885;42.596;23.044;2022-10-31T05:43:33;93572.69;;;13.65;71.43
15568;BME280;7885;42.596;23.044;2022-10-31T05:46:01;93562.22;;;13.53;71.42
15568;BME280;7885;42.596;23.044;2022-10-31T05:48:28;93562.59;;;13.48;70.78
15568;BME280;7885;42.596;23.044;2022-10-31T05:50:54;93567.25;;;13.58;70.54
15568;BME280;7885;42.596;23.044;2022-10-31T05:53:21;93513.44;;;13.34;70.50
15568;BME280;7885;42.596;23.044;2022-10-31T05:55:48;93514.16;;;13.52;69.45
15568;BME280;7885;42.596;23.044;2022-10-31T05:58:15;93570.91;;;14.07;68.67
15568;BME280;7885;42.596;23.044;2022-10-31T06:00:42;93578.69;;;14.19;67.76
15568;BME280;7885;42.596;23.044;2022-10-31T06:03:10;93584.44;;;14.39;66.92
15568;BME280;7885;42.596;23.044;2022-10-31T06:05:37;93578.56;;;14.88;65.72
15568;BME280;7885;42.596;23.044;2022-10-31T06:08:04;93557.78;;;16.26;61.50
15568;BME280;7885;42.596;23.044;2022-10-31T06:10:31;93585.53;;;18.86;53.93
15568;BME280;7885;42.596;23.044;2022-10-31T06:12:58;93585.47;;;21.00;46.13
15568;BME280;7885;42.596;23.044;2022-10-31T06:15:29;93530.25;;;22.52;40.72
15568;BME280;7885;42.596;23.044;2022-10-31T06:18:00;93579.97;;;24.48;36.37
15568;BME280;7885;42.596;23.044;2022-10-31T06:20:29;93569.66;;;25.80;33.43
15568;BME280;7885;42.596;23.044;2022-10-31T06:22:56;93604.47;;;27.34;30.60
15568;BME280;7885;42.596;23.044;2022-10-31T06:25:22;93584.78;;;28.39;28.54
15568;BME280;7885;42.596;23.044;2022-10-31T06:27:49;93579.69;;;29.51;26.70
15568;BME280;7885;42.596;23.044;2022-10-31T06:30:16;93598.88;;;30.54;24.92
15568;BME280;7885;42.596;23.044;2022-10-31T06:32:43;93612.31;;;31.37;23.62
15568;BME280;7885;42.596;23.044;2022-10-31T06:35:10;93613.75;;;32.16;22.78
15568;BME280;7885;42.596;23.044;2022-10-31T06:37:38;93607.47;;;32.97;21.89
15568;BME280;7885;42.596;23.044;2022-10-31T06:40:06;93618.13;;;33.21;21.40
15568;BME280;7885;42.596;23.044;2022-10-31T06:42:33;93613.94;;;33.33;21.47
15568;BME280;7885;42.596;23.044;2022-10-31T06:44:59;93623.16;;;34.23;20.27
15568;BME280;7885;42.596;23.044;2022-10-31T06:47:26;93623.84;;;34.91;19.48
15568;BME280;7885;42.596;23.044;2022-10-31T06:49:53;93615.16;;;35.26;18.80
15568;BME280;7885;42.596;23.044;2022-10-31T06:52:20;93606.78;;;35.66;18.69
15568;BME280;7885;42.596;23.044;2022-10-31T06:54:50;93627.09;;;36.28;17.98
15568;BME280;7885;42.596;23.044;2022-10-31T06:57:17;93623.38;;;37.32;16.93
15568;BME280;7885;42.596;23.044;2022-10-31T06:59:43;93621.31;;;38.36;16.59
15568;BME280;7885;42.596;23.044;2022-10-31T07:02:10;93620.16;;;39.39;15.78
15568;BME280;7885;42.596;23.044;2022-10-31T07:04:37;93606.59;;;40.14;15.03
15568;BME280;7885;42.596;23.044;2022-10-31T07:07:04;93621.28;;;41.03;14.61
15568;BME280;7885;42.596;23.044;2022-10-31T07:09:31;93634.69;;;41.41;14.00
15568;BME280;7885;42.596;23.044;2022-10-31T07:11:59;93593.47;;;41.76;13.72
15568;BME280;7885;42.596;23.044;2022-10-31T07:14:26;93630.97;;;42.62;13.25
15568;BME280;7885;42.596;23.044;2022-10-31T07:16:52;93578.00;;;42.70;13.27
15568;BME280;7885;42.596;23.044;2022-10-31T07:19:19;93617.84;;;42.93;12.83
15568;BME280;7885;42.596;23.044;2022-10-31T07:21:46;93631.56;;;43.46;12.65
15568;BME280;7885;42.596;23.044;2022-10-31T07:24:12;93631.72;;;43.92;12.51
15568;BME280;7885;42.596;23.044;2022-10-31T07:26:39;93621.47;;;44.25;12.11
15568;BME280;7885;42.596;23.044;2022-10-31T07:29:09;93631.41;;;44.61;11.82
15568;BME280;7885;42.596;23.044;2022-10-31T07:31:35;93584.59;;;44.22;11.43
15568;BME280;7885;42.596;23.044;2022-10-31T07:34:02;93623.25;;;44.57;11.54
15568;BME280;7885;42.596;23.044;2022-10-31T07:36:29;93618.41;;;44.79;11.24
15568;BME280;7885;42.596;23.044;2022-10-31T07:38:56;93616.34;;;45.08;11.01
15568;BME280;7885;42.596;23.044;2022-10-31T07:41:23;93603.00;;;44.84;11.28
15568;BME280;7885;42.596;23.044;2022-10-31T07:43:50;93613.63;;;45.10;10.64
15568;BME280;7885;42.596;23.044;2022-10-31T07:46:18;93567.47;;;45.18;10.38
15568;BME280;7885;42.596;23.044;2022-10-31T07:48:45;93620.88;;;45.11;11.00
15568;BME280;7885;42.596;23.044;2022-10-31T07:51:12;93619.47;;;45.70;10.81
15568;BME280;7885;42.596;23.044;2022-10-31T07:53:39;93599.66;;;45.74;10.34
15568;BME280;7885;42.596;23.044;2022-10-31T07:56:07;93606.06;;;46.13;10.54
15568;BME280;7885;42.596;23.044;2022-10-31T07:58:33;93626.88;;;45.92;10.64
15568;BME280;7885;42.596;23.044;2022-10-31T08:01:00;93614.25;;;46.38;10.07
15568;BME280;7885;42.596;23.044;2022-10-31T08:10:12;93609.88;;;45.96;10.09
15568;BME280;7885;42.596;23.044;2022-10-31T08:12:39;93610.78;;;46.39;10.00
15568;BME280;7885;42.596;23.044;2022-10-31T08:15:07;93612.00;;;46.67;10.17
15568;BME280;7885;42.596;23.044;2022-10-31T08:17:35;93609.16;;;46.88;9.94
15568;BME280;7885;42.596;23.044;2022-10-31T08:20:02;93603.38;;;47.09;9.88
15568;BME280;7885;42.596;23.044;2022-10-31T08:22:29;93610.66;;;46.68;9.85
15568;BME280;7885;42.596;23.044;2022-10-31T08:24:56;93608.25;;;47.28;9.90
15568;BME280;7885;42.596;23.044;2022-10-31T08:27:24;93608.59;;;47.23;9.93
15568;BME280;7885;42.596;23.044;2022-10-31T08:29:51;93580.16;;;47.07;9.74
15568;BME280;7885;42.596;23.044;2022-10-31T08:32:21;93612.31;;;47.68;9.62
15568;BME280;7885;42.596;23.044;2022-10-31T08:34:47;93596.28;;;47.88;9.57
15568;BME280;7885;42.596;23.044;2022-10-31T08:37:14;93616.09;;;48.26;9.13
15568;BME280;7885;42.596;23.044;2022-10-31T08:39:45;93528.09;;;47.59;9.37
15568;BME280;7885;42.596;23.044;2022-10-31T08:42:12;93613.16;;;48.14;9.52
15568;BME280;7885;42.596;23.044;2022-10-31T08:44:40;93616.97;;;48.29;9.20
15568;BME280;7885;42.596;23.044;2022-10-31T08:47:07;93596.19;;;48.21;9.24
15568;BME280;7885;42.596;23.044;2022-10-31T08:49:34;93607.41;;;48.38;9.30
15568;BME280;7885;42.596;23.044;2022-10-31T08:52:00;93610.16;;;48.59;9.14
15568;BME280;7885;42.596;23.044;2022-10-31T08:54:27;93566.59;;;48.08;9.18
15568;BME280;7885;42.596;23.044;2022-10-31T08:56:54;93606.41;;;48.45;9.30
15568;BME280;7885;42.596;23.044;2022-10-31T08:59:21;93589.56;;;48.53;9.13
15568;BME280;7885;42.596;23.044;2022-10-31T09:01:50;93603.16;;;48.62;9.08
15568;BME280;7885;42.596;23.044;2022-10-31T09:04:16;93608.88;;;48.97;8.88
15568;BME280;7885;42.596;23.044;2022-10-31T09:06:43;93591.59;;;48.50;9.25
15568;BME280;7885;42.596;23.044;2022-10-31T09:09:10;93577.38;;;48.20;9.02
15568;BME280;7885;42.596;23.044;2022-10-31T09:11:37;93599.56;;;47.94;9.74
15568;BME280;7885;42.596;23.044;2022-10-31T09:14:04;93596.84;;;47.96;9.77
15568;BME280;7885;42.596;23.044;2022-10-31T09:16:31;93607.03;;;48.20;9.65
15568;BME280;7885;42.596;23.044;2022-10-31T09:18:59;93606.13;;;48.18;9.36
15568;BME280;7885;42.596;23.044;2022-10-31T09:21:26;93600.34;;;48.18;9.44
15568;BME280;7885;42.596;23.044;2022-10-31T09:23:52;93591.09;;;48.54;9.38
15568;BME280;7885;42.596;23.044;2022-10-31T09:26:19;93574.25;;;48.39;9.21
15568;BME280;7885;42.596;23.044;2022-10-31T09:28:47;93591.72;;;48.29;9.41
15568;BME280;7885;42.596;23.044;2022-10-31T09:31:13;93585.69;;;48.37;9.36
15568;BME280;7885;42.596;23.044;2022-10-31T09:33:40;93564.44;;;48.21;9.05
15568;BME280;7885;42.596;23.044;2022-10-31T09:36:09;93595.38;;;48.30;9.26
15568;BME280;7885;42.596;23.044;2022-10-31T09:42:04;93570.59;;;42.85;11.84
15568;BME280;7885;42.596;23.044;2022-10-31T09:44:44;93579.53;;;40.53;13.30
15568;BME280;7885;42.596;23.044;2022-10-31T09:47:20;93571.41;;;38.64;14.67
15568;BME280;7885;42.596;23.044;2022-10-31T09:50:02;93562.31;;;37.05;15.77
15568;BME280;7885;42.596;23.044;2022-10-31T09:52:36;93556.25;;;35.70;17.25
15568;BME280;7885;42.596;23.044;2022-10-31T09:55:14;93550.91;;;34.84;18.07
15568;BME280;7885;42.596;23.044;2022-10-31T09:57:44;93552.13;;;34.32;18.58
15568;BME280;7885;42.596;23.044;2022-10-31T10:00:16;93478.63;;;33.17;19.37
15568;BME280;7885;42.596;23.044;2022-10-31T10:02:46;93563.56;;;34.21;19.17
15568;BME280;7885;42.596;23.044;2022-10-31T10:05:18;93560.59;;;34.32;19.14
15568;BME280;7885;42.596;23.044;2022-10-31T10:07:54;93555.66;;;34.57;19.11
15568;BME280;7885;42.596;23.044;2022-10-31T10:10:27;93565.63;;;36.96;17.63
15568;BME280;7885;42.596;23.044;2022-10-31T10:13:19;93544.88;;;39.12;15.33
15568;BME280;7885;42.596;23.044;2022-10-31T10:16:11;93570.22;;;40.60;14.07
15568;BME280;7885;42.596;23.044;2022-10-31T10:18:56;93546.38;;;41.52;13.16
15568;BME280;7885;42.596;23.044;2022-10-31T10:21:35;93529.69;;;41.66;12.90
15568;BME280;7885;42.596;23.044;2022-10-31T10:24:19;93518.38;;;42.76;12.48
15568;BME280;7885;42.596;23.044;2022-10-31T10:26:53;93548.22;;;43.98;11.88
15568;BME280;7885;42.596;23.044;2022-10-31T10:29:37;93542.19;;;44.59;11.48
15568;BME280;7885;42.596;23.044;2022-10-31T10:32:12;93550.38;;;45.10;11.08
15568;BME280;7885;42.596;23.044;2022-10-31T10:34:44;93540.94;;;45.58;10.82
15568;BME280;7885;42.596;23.044;2022-10-31T10:37:21;93536.41;;;45.55;10.72
15568;BME280;7885;42.596;23.044;2022-10-31T10:39:53;93511.50;;;44.90;11.06
15568;BME280;7885;42.596;23.044;2022-10-31T10:42:24;93530.41;;;44.93;10.98
15568;BME280;7885;42.596;23.044;2022-10-31T10:45:15;93541.44;;;45.26;10.99
15568;BME280;7885;42.596;23.044;2022-10-31T10:48:06;93541.72;;;45.49;10.72
15568;BME280;7885;42.596;23.044;2022-10-31T10:50:38;93533.38;;;45.53;10.56
15568;BME280;7885;42.596;23.044;2022-10-31T10:53:11;93534.53;;;45.69;10.34
15568;BME280;7885;42.596;23.044;2022-10-31T10:55:52;93492.28;;;45.21;10.56
15568;BME280;7885;42.596;23.044;2022-10-31T10:58:19;93520.28;;;44.92;11.28
15568;BME280;7885;42.596;23.044;2022-10-31T11:00:47;93533.13;;;44.91;11.34
15568;BME280;7885;42.596;23.044;2022-10-31T11:03:15;93537.25;;;44.79;10.88
15568;BME280;7885;42.596;23.044;2022-10-31T11:05:47;93532.84;;;44.03;11.35
15568;BME280;7885;42.596;23.044;2022-10-31T11:08:23;93507.56;;;43.28;11.93
15568;BME280;7885;42.596;23.044;2022-10-31T11:10:58;93515.91;;;43.07;12.19
15568;BME280;7885;42.596;23.044;2022-10-31T11:13:25;93516.00;;;42.65;12.51
15568;BME280;7885;42.596;23.044;2022-10-31T11:16:00;93479.56;;;41.90;12.64
15568;BME280;7885;42.596;23.044;2022-10-31T11:18:29;93510.28;;;41.32;13.02
15568;BME280;7885;42.596;23.044;2022-10-31T11:20:57;93502.28;;;40.51;13.81
15568;BME280;7885;42.596;23.044;2022-10-31T11:23:26;93504.91;;;39.78;14.59
15568;BME280;7885;42.596;23.044;2022-10-31T11:25:57;93474.97;;;38.96;14.87
15568;BME280;7885;42.596;23.044;2022-10-31T11:28:24;93484.16;;;38.66;15.26
15568;BME280;7885;42.596;23.044;2022-10-31T11:30:54;93422.19;;;37.93;15.69
15568;BME280;7885;42.596;23.044;2022-10-31T11:33:26;93474.97;;;38.09;15.66
15568;BME280;7885;42.596;23.044;2022-10-31T11:35:55;93420.47;;;37.62;15.73
15568;BME280;7885;42.596;23.044;2022-10-31T11:38:24;93479.63;;;37.71;15.83
15568;BME280;7885;42.596;23.044;2022-10-31T11:40:59;93477.94;;;37.26;16.18
15568;BME280;7885;42.596;23.044;2022-10-31T11:43:27;93472.38;;;37.21;16.03
15568;BME280;7885;42.596;23.044;2022-10-31T11:45:54;93375.50;;;35.94;17.02
15568;BME280;7885;42.596;23.044;2022-10-31T11:48:22;93468.41;;;36.35;16.73
15568;BME280;7885;42.596;23.044;2022-10-31T11:50:51;93447.94;;;36.03;17.55
15568;BME280;7885;42.596;23.044;2022-10-31T11:53:24;93460.34;;;36.39;16.96
15568;BME280;7885;42.596;23.044;2022-10-31T11:56:09;93461.19;;;36.61;16.90
15568;BME280;7885;42.596;23.044;2022-10-31T11:58:37;93460.91;;;37.06;16.97
15568;BME280;7885;42.596;23.044;2022-10-31T12:01:08;93414.84;;;36.79;16.75
15568;BME280;7885;42.596;23.044;2022-10-31T12:03:54;93439.06;;;37.21;16.59
15568;BME280;7885;42.596;23.044;2022-10-31T12:06:23;93420.94;;;36.49;16.97
15568;BME280;7885;42.596;23.044;2022-10-31T12:08:52;93457.00;;;35.62;17.24
15568;BME280;7885;42.596;23.044;2022-10-31T12:11:33;93433.66;;;33.73;18.58
15568;BME280;7885;42.596;23.044;2022-10-31T12:14:12;93443.91;;;32.68;19.85
15568;BME280;7885;42.596;23.044;2022-10-31T12:16:46;93444.84;;;31.94;21.15
15568;BME280;7885;42.596;23.044;2022-10-31T12:19:20;93450.41;;;31.31;21.74
15568;BME280;7885;42.596;23.044;2022-10-31T12:22:14;93438.47;;;30.58;22.66
15568;BME280;7885;42.596;23.044;2022-10-31T12:24:56;93419.50;;;30.08;23.36
15568;BME280;7885;42.596;23.044;2022-10-31T12:27:37;93421.41;;;29.64;23.62
15568;BME280;7885;42.596;23.044;2022-10-31T12:30:15;93425.88;;;29.33;24.15
15568;BME280;7885;42.596;23.044;2022-10-31T12:33:03;93442.28;;;29.09;24.52
15568;BME280;7885;42.596;23.044;2022-10-31T12:35:40;93445.50;;;28.96;24.91
15568;BME280;7885;42.596;23.044;2022-10-31T12:38:20;93451.38;;;28.98;24.99
15568;BME280;7885;42.596;23.044;2022-10-31T12:41:00;93440.66;;;28.97;24.79
15568;BME280;7885;42.596;23.044;2022-10-31T12:43:45;93447.78;;;28.92;25.21
15568;BME280;7885;42.596;23.044;2022-10-31T12:46:19;93444.59;;;28.74;25.67
15568;BME280;7885;42.596;23.044;2022-10-31T12:49:07;93447.34;;;29.05;25.20
15568;BME280;7885;42.596;23.044;2022-10-31T12:51:46;93456.56;;;29.53;24.76
15568;BME280;7885;42.596;23.044;2022-10-31T12:54:31;93454.81;;;29.73;24.62
15568;BME280;7885;42.596;23.044;2022-10-31T12:57:10;93457.38;;;29.71;24.72
15568;BME280;7885;42.596;23.044;2022-10-31T12:59:43;93444.06;;;29.54;24.69
15568;BME280;7885;42.596;23.044;2022-10-31T13:02:17;93417.16;;;29.31;24.71
15568;BME280;7885;42.596;23.044;2022-10-31T13:04:48;93441.75;;;29.47;24.60
15568;BME280;7885;42.596;23.044;2022-10-31T13:07:20;93446.41;;;29.73;24.65
15568;BME280;7885;42.596;23.044;2022-10-31T13:09:54;93457.25;;;30.02;24.42
15568;BME280;7885;42.596;23.044;2022-10-31T13:12:23;93443.50;;;30.21;24.20
15568;BME280;7885;42.596;23.044;2022-10-31T13:14:54;93430.78;;;30.58;23.60
15568;BME280;7885;42.596;23.044;2022-10-31T13:17:25;93442.78;;;30.87;23.10
15568;BME280;7885;42.596;23.044;2022-10-31T13:20:02;93469.09;;;31.28;23.30
15568;BME280;7885;42.596;23.044;2022-10-31T13:22:32;93445.56;;;31.31;22.61
15568;BME280;7885;42.596;23.044;2022-10-31T13:25:04;93456.78;;;31.53;22.58
15568;BME280;7885;42.596;23.044;2022-10-31T13:27:44;93443.72;;;31.56;22.62
15568;BME280;7885;42.596;23.044;2022-10-31T13:30:15;93460.53;;;31.78;22.74
15568;BME280;7885;42.596;23.044;2022-10-31T13:32:45;93417.66;;;31.39;22.46
15568;BME280;7885;42.596;23.044;2022-10-31T13:35:20;93445.00;;;31.49;22.84
15568;BME280;7885;42.596;23.044;2022-10-31T13:37:56;93433.03;;;31.21;22.66
15568;BME280;7885;42.596;23.044;2022-10-31T13:40:34;93450.66;;;31.27;22.88